sensor_id;sensor_type;location;lat;lon;timestamp;P1;durP1;ratioP1;P2;durP2;ratioP2
7334;SDS011;3708;42.632;23.378;2022-09-21T00:01:25;2.53;;;2.33;;
7334;SDS011;3708;42.632;23.378;2022-09-21T00:03:55;3.53;;;2.13;;
7334;SDS011;3708;42.632;23.378;2022-09-21T00:06:23;2.97;;;2.47;;
7334;SDS011;3708;42.632;23.378;2022-09-21T00:08:51;2.97;;;2.63;;
7334;SDS011;3708;42.632;23.378;2022-09-21T00:11:19;2.87;;;2.40;;
7334;SDS011;3708;42.632;23.378;2022-09-21T00:13:50;2.37;;;2.17;;
7334;SDS011;3708;42.632;23.378;2022-09-21T00:16:18;3.93;;;2.23;;
7334;SDS011;3708;42.632;23.378;2022-09-21T00:18:46;2.63;;;2.43;;
7334;SDS011;3708;42.632;23.378;2022-09-21T00:21:13;3.30;;;2.37;;
7334;SDS011;3708;42.632;23.378;2022-09-21T00:23:42;3.67;;;2.00;;
7334;SDS011;3708;42.632;23.378;2022-09-21T00:26:10;2.10;;;1.90;;
7334;SDS011;3708;42.632;23.378;2022-09-21T00:28:38;2.07;;;1.87;;
7334;SDS011;3708;42.632;23.378;2022-09-21T00:31:06;2.37;;;2.10;;
7334;SDS011;3708;42.632;23.378;2022-09-21T00:33:36;2.90;;;2.10;;
7334;SDS011;3708;42.632;23.378;2022-09-21T00:36:06;2.47;;;2.00;;
7334;SDS011;3708;42.632;23.378;2022-09-21T00:38:35;2.23;;;2.00;;
7334;SDS011;3708;42.632;23.378;2022-09-21T00:41:03;2.20;;;1.93;;
7334;SDS011;3708;42.632;23.378;2022-09-21T00:43:32;3.17;;;2.30;;
7334;SDS011;3708;42.632;23.378;2022-09-21T00:46:00;5.53;;;2.33;;
7334;SDS011;3708;42.632;23.378;2022-09-21T00:48:29;2.83;;;2.10;;
7334;SDS011;3708;42.632;23.378;2022-09-21T00:50:59;2.30;;;2.00;;
7334;SDS011;3708;42.632;23.378;2022-09-21T00:53:29;3.23;;;2.47;;
7334;SDS011;3708;42.632;23.378;2022-09-21T00:55:57;2.77;;;2.57;;
7334;SDS011;3708;42.632;23.378;2022-09-21T00:58:25;2.43;;;2.23;;
7334;SDS011;3708;42.632;23.378;2022-09-21T01:00:55;2.17;;;1.97;;
7334;SDS011;3708;42.632;23.378;2022-09-21T01:03:25;2.40;;;2.03;;
7334;SDS011;3708;42.632;23.378;2022-09-21T01:05:53;2.87;;;2.30;;
7334;SDS011;3708;42.632;23.378;2022-09-21T01:08:20;2.50;;;2.27;;
7334;SDS011;3708;42.632;23.378;2022-09-21T01:10:56;3.03;;;2.43;;
7334;SDS011;3708;42.632;23.378;2022-09-21T01:13:41;3.80;;;2.23;;
7334;SDS011;3708;42.632;23.378;2022-09-21T01:16:17;3.23;;;2.80;;
7334;SDS011;3708;42.632;23.378;2022-09-21T01:18:50;7.43;;;3.13;;
7334;SDS011;3708;42.632;23.378;2022-09-21T01:21:24;4.07;;;3.33;;
7334;SDS011;3708;42.632;23.378;2022-09-21T01:30:02;4.17;;;3.30;;
7334;SDS011;3708;42.632;23.378;2022-09-21T01:32:33;4.67;;;3.70;;
7334;SDS011;3708;42.632;23.378;2022-09-21T01:35:05;4.10;;;3.67;;
7334;SDS011;3708;42.632;23.378;2022-09-21T01:37:38;6.60;;;3.83;;
7334;SDS011;3708;42.632;23.378;2022-09-21T01:40:11;4.10;;;3.60;;
7334;SDS011;3708;42.632;23.378;2022-09-21T01:42:42;3.80;;;3.30;;
7334;SDS011;3708;42.632;23.378;2022-09-21T01:45:14;4.67;;;3.57;;
7334;SDS011;3708;42.632;23.378;2022-09-21T01:47:44;4.20;;;3.33;;
7334;SDS011;3708;42.632;23.378;2022-09-21T01:50:13;4.87;;;3.00;;
7334;SDS011;3708;42.632;23.378;2022-09-21T01:52:45;4.83;;;3.07;;
7334;SDS011;3708;42.632;23.378;2022-09-21T01:55:16;3.17;;;2.87;;
7334;SDS011;3708;42.632;23.378;2022-09-21T01:57:49;4.83;;;3.67;;
7334;SDS011;3708;42.632;23.378;2022-09-21T02:00:22;3.40;;;2.90;;
7334;SDS011;3708;42.632;23.378;2022-09-21T02:02:50;3.00;;;2.57;;
7334;SDS011;3708;42.632;23.378;2022-09-21T02:05:23;4.53;;;3.27;;
7334;SDS011;3708;42.632;23.378;2022-09-21T02:07:52;4.87;;;2.80;;
7334;SDS011;3708;42.632;23.378;2022-09-21T02:10:22;3.20;;;2.87;;
7334;SDS011;3708;42.632;23.378;2022-09-21T02:12:54;4.07;;;2.63;;
7334;SDS011;3708;42.632;23.378;2022-09-21T02:15:28;3.50;;;2.80;;
7334;SDS011;3708;42.632;23.378;2022-09-21T02:18:04;3.43;;;2.80;;
7334;SDS011;3708;42.632;23.378;2022-09-21T02:20:35;6.47;;;3.93;;
7334;SDS011;3708;42.632;23.378;2022-09-21T02:23:09;4.37;;;3.27;;
7334;SDS011;3708;42.632;23.378;2022-09-21T02:25:43;6.20;;;3.60;;
7334;SDS011;3708;42.632;23.378;2022-09-21T02:28:18;4.60;;;3.70;;
7334;SDS011;3708;42.632;23.378;2022-09-21T02:30:54;5.70;;;3.67;;
7334;SDS011;3708;42.632;23.378;2022-09-21T02:33:27;5.13;;;3.77;;
7334;SDS011;3708;42.632;23.378;2022-09-21T02:36:02;6.00;;;4.40;;
7334;SDS011;3708;42.632;23.378;2022-09-21T02:38:34;8.40;;;4.50;;
7334;SDS011;3708;42.632;23.378;2022-09-21T02:41:06;5.93;;;3.97;;
7334;SDS011;3708;42.632;23.378;2022-09-21T02:43:42;4.17;;;3.67;;
7334;SDS011;3708;42.632;23.378;2022-09-21T02:46:17;4.67;;;4.07;;
7334;SDS011;3708;42.632;23.378;2022-09-21T02:48:49;5.63;;;3.90;;
7334;SDS011;3708;42.632;23.378;2022-09-21T02:51:19;8.07;;;3.77;;
7334;SDS011;3708;42.632;23.378;2022-09-21T02:53:51;3.77;;;3.37;;
7334;SDS011;3708;42.632;23.378;2022-09-21T02:56:20;4.30;;;3.23;;
7334;SDS011;3708;42.632;23.378;2022-09-21T02:58:49;5.90;;;3.60;;
7334;SDS011;3708;42.632;23.378;2022-09-21T03:01:21;4.03;;;3.53;;
7334;SDS011;3708;42.632;23.378;2022-09-21T03:03:50;5.77;;;3.90;;
7334;SDS011;3708;42.632;23.378;2022-09-21T03:06:17;4.37;;;3.80;;
7334;SDS011;3708;42.632;23.378;2022-09-21T03:08:43;6.27;;;3.90;;
7334;SDS011;3708;42.632;23.378;2022-09-21T03:11:10;6.50;;;4.00;;
7334;SDS011;3708;42.632;23.378;2022-09-21T03:13:41;4.60;;;3.57;;
7334;SDS011;3708;42.632;23.378;2022-09-21T03:16:08;5.53;;;3.70;;
7334;SDS011;3708;42.632;23.378;2022-09-21T03:18:37;4.63;;;3.80;;
7334;SDS011;3708;42.632;23.378;2022-09-21T03:21:07;4.10;;;3.70;;
7334;SDS011;3708;42.632;23.378;2022-09-21T03:23:34;9.77;;;3.90;;
7334;SDS011;3708;42.632;23.378;2022-09-21T03:26:01;4.63;;;3.27;;
7334;SDS011;3708;42.632;23.378;2022-09-21T03:28:28;7.80;;;3.60;;
7334;SDS011;3708;42.632;23.378;2022-09-21T03:30:54;4.13;;;3.47;;
7334;SDS011;3708;42.632;23.378;2022-09-21T03:33:22;3.73;;;3.03;;
7334;SDS011;3708;42.632;23.378;2022-09-21T03:35:50;5.53;;;3.17;;
7334;SDS011;3708;42.632;23.378;2022-09-21T03:38:18;4.80;;;3.10;;
7334;SDS011;3708;42.632;23.378;2022-09-21T03:40:46;7.87;;;4.27;;
7334;SDS011;3708;42.632;23.378;2022-09-21T03:43:14;7.10;;;4.33;;
7334;SDS011;3708;42.632;23.378;2022-09-21T03:45:41;5.13;;;4.40;;
7334;SDS011;3708;42.632;23.378;2022-09-21T03:48:10;6.33;;;4.33;;
7334;SDS011;3708;42.632;23.378;2022-09-21T03:50:37;6.83;;;4.93;;
7334;SDS011;3708;42.632;23.378;2022-09-21T03:53:05;9.40;;;5.17;;
7334;SDS011;3708;42.632;23.378;2022-09-21T03:55:33;17.40;;;4.93;;
7334;SDS011;3708;42.632;23.378;2022-09-21T03:58:00;7.37;;;5.47;;
7334;SDS011;3708;42.632;23.378;2022-09-21T04:00:27;8.60;;;4.93;;
7334;SDS011;3708;42.632;23.378;2022-09-21T04:02:54;8.57;;;4.57;;
7334;SDS011;3708;42.632;23.378;2022-09-21T04:05:22;7.70;;;4.83;;
7334;SDS011;3708;42.632;23.378;2022-09-21T04:07:49;14.17;;;5.53;;
7334;SDS011;3708;42.632;23.378;2022-09-21T04:10:18;5.50;;;4.57;;
7334;SDS011;3708;42.632;23.378;2022-09-21T04:12:51;14.00;;;5.87;;
7334;SDS011;3708;42.632;23.378;2022-09-21T04:15:22;10.20;;;5.20;;
7334;SDS011;3708;42.632;23.378;2022-09-21T04:17:49;10.03;;;5.97;;
7334;SDS011;3708;42.632;23.378;2022-09-21T04:20:16;8.17;;;5.70;;
7334;SDS011;3708;42.632;23.378;2022-09-21T04:22:43;10.60;;;6.07;;
7334;SDS011;3708;42.632;23.378;2022-09-21T04:25:10;12.70;;;6.30;;
7334;SDS011;3708;42.632;23.378;2022-09-21T04:27:39;9.33;;;7.03;;
7334;SDS011;3708;42.632;23.378;2022-09-21T04:30:07;7.70;;;5.70;;
7334;SDS011;3708;42.632;23.378;2022-09-21T04:32:35;10.07;;;5.60;;
7334;SDS011;3708;42.632;23.378;2022-09-21T04:35:02;11.43;;;6.43;;
7334;SDS011;3708;42.632;23.378;2022-09-21T04:37:30;10.87;;;5.00;;
7334;SDS011;3708;42.632;23.378;2022-09-21T04:39:57;8.53;;;5.07;;
7334;SDS011;3708;42.632;23.378;2022-09-21T04:42:24;8.83;;;6.00;;
7334;SDS011;3708;42.632;23.378;2022-09-21T04:44:53;5.87;;;4.73;;
7334;SDS011;3708;42.632;23.378;2022-09-21T04:47:20;5.90;;;4.30;;
7334;SDS011;3708;42.632;23.378;2022-09-21T04:49:48;6.63;;;4.43;;
7334;SDS011;3708;42.632;23.378;2022-09-21T04:52:15;4.90;;;4.23;;
7334;SDS011;3708;42.632;23.378;2022-09-21T04:54:43;6.13;;;4.90;;
7334;SDS011;3708;42.632;23.378;2022-09-21T04:57:30;9.60;;;3.93;;
7334;SDS011;3708;42.632;23.378;2022-09-21T05:00:02;6.60;;;4.53;;
7334;SDS011;3708;42.632;23.378;2022-09-21T05:02:34;6.30;;;4.73;;
7334;SDS011;3708;42.632;23.378;2022-09-21T05:05:08;11.97;;;5.03;;
7334;SDS011;3708;42.632;23.378;2022-09-21T05:07:38;7.83;;;4.30;;
7334;SDS011;3708;42.632;23.378;2022-09-21T05:10:05;8.10;;;4.50;;
7334;SDS011;3708;42.632;23.378;2022-09-21T05:12:33;11.10;;;4.30;;
7334;SDS011;3708;42.632;23.378;2022-09-21T05:15:02;8.10;;;4.03;;
7334;SDS011;3708;42.632;23.378;2022-09-21T05:17:30;5.83;;;4.17;;
7334;SDS011;3708;42.632;23.378;2022-09-21T05:19:57;6.33;;;3.70;;
7334;SDS011;3708;42.632;23.378;2022-09-21T05:22:23;5.67;;;3.97;;
7334;SDS011;3708;42.632;23.378;2022-09-21T05:24:50;5.73;;;3.80;;
7334;SDS011;3708;42.632;23.378;2022-09-21T05:27:17;5.07;;;3.57;;
7334;SDS011;3708;42.632;23.378;2022-09-21T05:29:44;4.20;;;3.67;;
7334;SDS011;3708;42.632;23.378;2022-09-21T05:32:15;10.73;;;3.27;;
7334;SDS011;3708;42.632;23.378;2022-09-21T05:34:52;7.50;;;3.60;;
7334;SDS011;3708;42.632;23.378;2022-09-21T05:37:35;4.97;;;3.63;;
7334;SDS011;3708;42.632;23.378;2022-09-21T05:40:07;6.43;;;3.30;;
7334;SDS011;3708;42.632;23.378;2022-09-21T05:42:36;6.93;;;3.53;;
7334;SDS011;3708;42.632;23.378;2022-09-21T05:45:04;7.43;;;4.37;;
7334;SDS011;3708;42.632;23.378;2022-09-21T05:47:37;10.23;;;5.37;;
7334;SDS011;3708;42.632;23.378;2022-09-21T05:50:13;9.37;;;5.80;;
7334;SDS011;3708;42.632;23.378;2022-09-21T05:52:50;6.40;;;4.73;;
7334;SDS011;3708;42.632;23.378;2022-09-21T05:55:31;11.67;;;5.37;;
7334;SDS011;3708;42.632;23.378;2022-09-21T05:58:09;14.20;;;5.03;;
7334;SDS011;3708;42.632;23.378;2022-09-21T06:00:44;11.13;;;4.70;;
7334;SDS011;3708;42.632;23.378;2022-09-21T06:03:27;11.23;;;5.53;;
7334;SDS011;3708;42.632;23.378;2022-09-21T06:05:55;13.27;;;5.10;;
7334;SDS011;3708;42.632;23.378;2022-09-21T06:08:22;8.27;;;4.77;;
7334;SDS011;3708;42.632;23.378;2022-09-21T06:10:50;9.10;;;4.77;;
7334;SDS011;3708;42.632;23.378;2022-09-21T06:13:17;6.03;;;4.67;;
7334;SDS011;3708;42.632;23.378;2022-09-21T06:15:44;8.77;;;4.97;;
7334;SDS011;3708;42.632;23.378;2022-09-21T06:18:11;8.33;;;5.03;;
7334;SDS011;3708;42.632;23.378;2022-09-21T06:20:39;15.20;;;5.73;;
7334;SDS011;3708;42.632;23.378;2022-09-21T06:23:07;10.00;;;5.03;;
7334;SDS011;3708;42.632;23.378;2022-09-21T06:25:35;10.80;;;5.17;;
7334;SDS011;3708;42.632;23.378;2022-09-21T06:28:02;11.77;;;5.23;;
7334;SDS011;3708;42.632;23.378;2022-09-21T06:30:30;8.57;;;4.87;;
7334;SDS011;3708;42.632;23.378;2022-09-21T06:32:58;14.27;;;4.73;;
7334;SDS011;3708;42.632;23.378;2022-09-21T06:35:26;8.03;;;5.17;;
7334;SDS011;3708;42.632;23.378;2022-09-21T06:37:57;13.53;;;5.90;;
7334;SDS011;3708;42.632;23.378;2022-09-21T06:40:25;7.77;;;4.40;;
7334;SDS011;3708;42.632;23.378;2022-09-21T06:42:56;7.87;;;4.60;;
7334;SDS011;3708;42.632;23.378;2022-09-21T06:45:23;10.67;;;5.87;;
7334;SDS011;3708;42.632;23.378;2022-09-21T06:47:51;8.37;;;5.13;;
7334;SDS011;3708;42.632;23.378;2022-09-21T06:50:18;6.57;;;4.40;;
7334;SDS011;3708;42.632;23.378;2022-09-21T06:52:45;9.20;;;5.23;;
7334;SDS011;3708;42.632;23.378;2022-09-21T06:55:14;14.77;;;5.20;;
7334;SDS011;3708;42.632;23.378;2022-09-21T06:57:41;9.30;;;5.70;;
7334;SDS011;3708;42.632;23.378;2022-09-21T07:00:09;8.10;;;5.23;;
7334;SDS011;3708;42.632;23.378;2022-09-21T07:02:41;6.97;;;3.10;;
7334;SDS011;3708;42.632;23.378;2022-09-21T07:05:09;6.87;;;3.90;;
7334;SDS011;3708;42.632;23.378;2022-09-21T07:07:37;5.83;;;2.70;;
7334;SDS011;3708;42.632;23.378;2022-09-21T07:10:04;3.67;;;3.03;;
7334;SDS011;3708;42.632;23.378;2022-09-21T07:12:34;7.10;;;2.20;;
7334;SDS011;3708;42.632;23.378;2022-09-21T07:15:01;5.53;;;1.97;;
7334;SDS011;3708;42.632;23.378;2022-09-21T07:17:31;6.40;;;3.13;;
7334;SDS011;3708;42.632;23.378;2022-09-21T07:19:58;2.20;;;1.97;;
7334;SDS011;3708;42.632;23.378;2022-09-21T07:22:27;2.27;;;1.90;;
7334;SDS011;3708;42.632;23.378;2022-09-21T07:24:54;3.67;;;2.30;;
7334;SDS011;3708;42.632;23.378;2022-09-21T07:27:22;3.47;;;2.00;;
7334;SDS011;3708;42.632;23.378;2022-09-21T07:29:50;4.30;;;2.30;;
7334;SDS011;3708;42.632;23.378;2022-09-21T07:32:18;3.93;;;2.10;;
7334;SDS011;3708;42.632;23.378;2022-09-21T07:34:45;2.83;;;2.07;;
7334;SDS011;3708;42.632;23.378;2022-09-21T07:37:12;2.80;;;2.47;;
7334;SDS011;3708;42.632;23.378;2022-09-21T07:39:39;5.07;;;2.23;;
7334;SDS011;3708;42.632;23.378;2022-09-21T07:42:06;2.10;;;1.90;;
7334;SDS011;3708;42.632;23.378;2022-09-21T07:44:34;3.27;;;2.40;;
7334;SDS011;3708;42.632;23.378;2022-09-21T07:47:02;4.03;;;1.93;;
7334;SDS011;3708;42.632;23.378;2022-09-21T07:49:29;2.20;;;2.00;;
7334;SDS011;3708;42.632;23.378;2022-09-21T07:51:56;3.27;;;2.33;;
7334;SDS011;3708;42.632;23.378;2022-09-21T07:54:22;3.30;;;2.70;;
7334;SDS011;3708;42.632;23.378;2022-09-21T07:56:49;2.93;;;2.23;;
7334;SDS011;3708;42.632;23.378;2022-09-21T07:59:30;5.27;;;2.23;;
7334;SDS011;3708;42.632;23.378;2022-09-21T08:01:57;2.80;;;1.83;;
7334;SDS011;3708;42.632;23.378;2022-09-21T08:04:26;2.87;;;2.20;;
7334;SDS011;3708;42.632;23.378;2022-09-21T08:06:53;2.73;;;2.17;;
7334;SDS011;3708;42.632;23.378;2022-09-21T08:09:20;4.47;;;2.40;;
7334;SDS011;3708;42.632;23.378;2022-09-21T08:11:47;4.00;;;2.03;;
7334;SDS011;3708;42.632;23.378;2022-09-21T08:14:16;6.63;;;3.10;;
7334;SDS011;3708;42.632;23.378;2022-09-21T08:16:44;3.07;;;2.17;;
7334;SDS011;3708;42.632;23.378;2022-09-21T08:19:12;3.90;;;2.07;;
7334;SDS011;3708;42.632;23.378;2022-09-21T08:21:40;4.50;;;2.93;;
7334;SDS011;3708;42.632;23.378;2022-09-21T08:24:07;3.50;;;2.30;;
7334;SDS011;3708;42.632;23.378;2022-09-21T08:26:34;4.50;;;2.40;;
7334;SDS011;3708;42.632;23.378;2022-09-21T08:29:02;2.13;;;1.80;;
7334;SDS011;3708;42.632;23.378;2022-09-21T08:31:31;4.13;;;1.87;;
7334;SDS011;3708;42.632;23.378;2022-09-21T08:34:15;2.20;;;1.77;;
7334;SDS011;3708;42.632;23.378;2022-09-21T08:36:45;4.20;;;2.10;;
7334;SDS011;3708;42.632;23.378;2022-09-21T08:39:12;2.10;;;1.90;;
7334;SDS011;3708;42.632;23.378;2022-09-21T08:41:46;2.83;;;2.10;;
7334;SDS011;3708;42.632;23.378;2022-09-21T08:44:24;3.10;;;2.33;;
7334;SDS011;3708;42.632;23.378;2022-09-21T08:46:57;4.53;;;2.20;;
7334;SDS011;3708;42.632;23.378;2022-09-21T08:49:30;6.07;;;2.43;;
7334;SDS011;3708;42.632;23.378;2022-09-21T08:52:03;3.53;;;2.40;;
7334;SDS011;3708;42.632;23.378;2022-09-21T08:54:35;3.30;;;1.87;;
7334;SDS011;3708;42.632;23.378;2022-09-21T08:57:10;6.80;;;1.80;;
7334;SDS011;3708;42.632;23.378;2022-09-21T08:59:38;2.63;;;1.90;;
7334;SDS011;3708;42.632;23.378;2022-09-21T09:02:16;6.60;;;2.03;;
7334;SDS011;3708;42.632;23.378;2022-09-21T09:04:58;3.07;;;2.10;;
7334;SDS011;3708;42.632;23.378;2022-09-21T09:07:35;9.17;;;2.50;;
7334;SDS011;3708;42.632;23.378;2022-09-21T09:10:22;4.03;;;2.30;;
7334;SDS011;3708;42.632;23.378;2022-09-21T09:13:01;3.70;;;2.00;;
7334;SDS011;3708;42.632;23.378;2022-09-21T09:15:46;2.37;;;2.00;;
7334;SDS011;3708;42.632;23.378;2022-09-21T09:18:21;2.53;;;2.00;;
7334;SDS011;3708;42.632;23.378;2022-09-21T09:20:54;2.27;;;1.70;;
7334;SDS011;3708;42.632;23.378;2022-09-21T09:23:25;2.53;;;1.73;;
7334;SDS011;3708;42.632;23.378;2022-09-21T09:25:56;3.33;;;2.33;;
7334;SDS011;3708;42.632;23.378;2022-09-21T09:28:29;3.93;;;1.80;;
7334;SDS011;3708;42.632;23.378;2022-09-21T09:31:00;2.47;;;1.50;;
7334;SDS011;3708;42.632;23.378;2022-09-21T09:33:37;4.10;;;1.60;;
7334;SDS011;3708;42.632;23.378;2022-09-21T09:36:15;2.70;;;1.60;;
7334;SDS011;3708;42.632;23.378;2022-09-21T09:38:44;2.83;;;1.70;;
7334;SDS011;3708;42.632;23.378;2022-09-21T09:44:31;4.13;;;1.80;;
7334;SDS011;3708;42.632;23.378;2022-09-21T09:47:16;3.37;;;2.37;;
7334;SDS011;3708;42.632;23.378;2022-09-21T09:49:56;1.60;;;1.40;;
7334;SDS011;3708;42.632;23.378;2022-09-21T09:52:29;1.63;;;1.30;;
7334;SDS011;3708;42.632;23.378;2022-09-21T09:54:58;2.07;;;1.43;;
7334;SDS011;3708;42.632;23.378;2022-09-21T09:57:27;3.13;;;1.40;;
7334;SDS011;3708;42.632;23.378;2022-09-21T09:59:57;1.80;;;1.60;;
7334;SDS011;3708;42.632;23.378;2022-09-21T10:02:28;2.53;;;1.40;;
7334;SDS011;3708;42.632;23.378;2022-09-21T10:04:56;1.70;;;1.40;;
7334;SDS011;3708;42.632;23.378;2022-09-21T10:07:32;1.57;;;1.47;;
7334;SDS011;3708;42.632;23.378;2022-09-21T10:10:02;2.17;;;1.60;;
7334;SDS011;3708;42.632;23.378;2022-09-21T10:12:47;2.53;;;1.40;;
7334;SDS011;3708;42.632;23.378;2022-09-21T10:15:16;2.93;;;1.60;;
7334;SDS011;3708;42.632;23.378;2022-09-21T10:17:43;2.90;;;2.20;;
7334;SDS011;3708;42.632;23.378;2022-09-21T10:20:13;4.03;;;1.50;;
7334;SDS011;3708;42.632;23.378;2022-09-21T10:22:42;1.40;;;1.20;;
7334;SDS011;3708;42.632;23.378;2022-09-21T10:25:15;2.93;;;1.57;;
7334;SDS011;3708;42.632;23.378;2022-09-21T10:27:45;2.60;;;1.80;;
7334;SDS011;3708;42.632;23.378;2022-09-21T10:30:31;2.53;;;1.80;;
7334;SDS011;3708;42.632;23.378;2022-09-21T10:32:59;1.43;;;1.33;;
7334;SDS011;3708;42.632;23.378;2022-09-21T10:35:26;1.87;;;1.60;;
7334;SDS011;3708;42.632;23.378;2022-09-21T10:38:07;1.90;;;1.60;;
7334;SDS011;3708;42.632;23.378;2022-09-21T10:40:37;1.77;;;1.40;;
7334;SDS011;3708;42.632;23.378;2022-09-21T10:43:05;2.07;;;1.30;;
7334;SDS011;3708;42.632;23.378;2022-09-21T10:45:51;1.10;;;1.00;;
7334;SDS011;3708;42.632;23.378;2022-09-21T10:48:19;1.40;;;1.30;;
7334;SDS011;3708;42.632;23.378;2022-09-21T10:50:49;2.23;;;1.37;;
7334;SDS011;3708;42.632;23.378;2022-09-21T10:53:18;1.40;;;1.30;;
7334;SDS011;3708;42.632;23.378;2022-09-21T10:55:54;1.90;;;1.30;;
7334;SDS011;3708;42.632;23.378;2022-09-21T10:58:24;1.83;;;1.30;;
7334;SDS011;3708;42.632;23.378;2022-09-21T11:00:52;1.73;;;1.27;;
7334;SDS011;3708;42.632;23.378;2022-09-21T11:03:32;2.67;;;1.43;;
7334;SDS011;3708;42.632;23.378;2022-09-21T11:06:17;1.47;;;1.20;;
7334;SDS011;3708;42.632;23.378;2022-09-21T11:08:52;1.10;;;1.00;;
7334;SDS011;3708;42.632;23.378;2022-09-21T11:11:38;2.93;;;1.10;;
7334;SDS011;3708;42.632;23.378;2022-09-21T11:14:18;1.60;;;1.30;;
7334;SDS011;3708;42.632;23.378;2022-09-21T11:16:55;1.30;;;1.10;;
7334;SDS011;3708;42.632;23.378;2022-09-21T11:19:29;2.17;;;1.30;;
7334;SDS011;3708;42.632;23.378;2022-09-21T11:22:01;1.30;;;1.20;;
7334;SDS011;3708;42.632;23.378;2022-09-21T11:24:35;1.30;;;1.10;;
7334;SDS011;3708;42.632;23.378;2022-09-21T11:27:10;2.70;;;1.30;;
7334;SDS011;3708;42.632;23.378;2022-09-21T11:29:44;2.00;;;1.00;;
7334;SDS011;3708;42.632;23.378;2022-09-21T11:32:28;1.23;;;1.13;;
7334;SDS011;3708;42.632;23.378;2022-09-21T11:35:15;1.40;;;1.10;;
7334;SDS011;3708;42.632;23.378;2022-09-21T11:38:08;1.43;;;1.33;;
7334;SDS011;3708;42.632;23.378;2022-09-21T11:40:41;2.67;;;1.20;;
7334;SDS011;3708;42.632;23.378;2022-09-21T11:43:27;1.40;;;1.20;;
7334;SDS011;3708;42.632;23.378;2022-09-21T11:46:13;1.23;;;1.10;;
7334;SDS011;3708;42.632;23.378;2022-09-21T11:48:58;1.23;;;1.10;;
7334;SDS011;3708;42.632;23.378;2022-09-21T11:51:49;1.40;;;1.30;;
7334;SDS011;3708;42.632;23.378;2022-09-21T11:54:39;1.13;;;1.00;;
7334;SDS011;3708;42.632;23.378;2022-09-21T11:57:19;1.27;;;1.10;;
7334;SDS011;3708;42.632;23.378;2022-09-21T11:59:55;2.73;;;1.30;;
7334;SDS011;3708;42.632;23.378;2022-09-21T12:02:37;3.93;;;1.87;;
7334;SDS011;3708;42.632;23.378;2022-09-21T12:05:37;1.67;;;1.10;;
7334;SDS011;3708;42.632;23.378;2022-09-21T12:08:33;4.50;;;1.27;;
7334;SDS011;3708;42.632;23.378;2022-09-21T12:11:11;2.10;;;1.40;;
7334;SDS011;3708;42.632;23.378;2022-09-21T12:13:49;3.50;;;1.00;;
7334;SDS011;3708;42.632;23.378;2022-09-21T12:16:28;1.97;;;1.27;;
7334;SDS011;3708;42.632;23.378;2022-09-21T12:19:04;1.60;;;1.50;;
7334;SDS011;3708;42.632;23.378;2022-09-21T12:21:35;3.17;;;1.27;;
7334;SDS011;3708;42.632;23.378;2022-09-21T12:24:10;1.47;;;1.37;;
7334;SDS011;3708;42.632;23.378;2022-09-21T12:26:41;2.60;;;1.57;;
7334;SDS011;3708;42.632;23.378;2022-09-21T12:29:13;3.40;;;1.40;;
7334;SDS011;3708;42.632;23.378;2022-09-21T12:31:54;2.53;;;1.43;;
7334;SDS011;3708;42.632;23.378;2022-09-21T12:34:28;5.33;;;1.40;;
7334;SDS011;3708;42.632;23.378;2022-09-21T12:37:06;3.33;;;1.07;;
7334;SDS011;3708;42.632;23.378;2022-09-21T12:39:38;2.13;;;1.50;;
7334;SDS011;3708;42.632;23.378;2022-09-21T12:42:14;2.73;;;1.43;;
7334;SDS011;3708;42.632;23.378;2022-09-21T12:44:52;1.00;;;1.00;;
7334;SDS011;3708;42.632;23.378;2022-09-21T12:47:24;1.87;;;1.40;;
7334;SDS011;3708;42.632;23.378;2022-09-21T12:50:05;2.33;;;1.13;;
7334;SDS011;3708;42.632;23.378;2022-09-21T12:52:42;1.63;;;1.50;;
7334;SDS011;3708;42.632;23.378;2022-09-21T12:55:14;1.30;;;1.00;;
7334;SDS011;3708;42.632;23.378;2022-09-21T12:57:55;3.10;;;1.20;;
7334;SDS011;3708;42.632;23.378;2022-09-21T13:00:28;1.90;;;1.10;;
7334;SDS011;3708;42.632;23.378;2022-09-21T13:03:02;1.33;;;1.10;;
7334;SDS011;3708;42.632;23.378;2022-09-21T13:05:43;1.30;;;1.20;;
7334;SDS011;3708;42.632;23.378;2022-09-21T13:08:24;1.57;;;1.20;;
7334;SDS011;3708;42.632;23.378;2022-09-21T13:10:59;2.27;;;1.20;;
7334;SDS011;3708;42.632;23.378;2022-09-21T13:13:32;1.67;;;1.20;;
7334;SDS011;3708;42.632;23.378;2022-09-21T13:16:02;3.60;;;1.10;;
7334;SDS011;3708;42.632;23.378;2022-09-21T13:18:34;1.00;;;0.90;;
7334;SDS011;3708;42.632;23.378;2022-09-21T13:21:16;1.80;;;1.00;;
7334;SDS011;3708;42.632;23.378;2022-09-21T13:23:49;1.43;;;1.20;;
7334;SDS011;3708;42.632;23.378;2022-09-21T13:26:27;1.53;;;1.20;;
7334;SDS011;3708;42.632;23.378;2022-09-21T13:28:59;1.77;;;1.33;;
7334;SDS011;3708;42.632;23.378;2022-09-21T13:31:30;1.10;;;1.00;;
7334;SDS011;3708;42.632;23.378;2022-09-21T13:34:22;1.07;;;0.97;;
7334;SDS011;3708;42.632;23.378;2022-09-21T13:43:08;1.87;;;1.30;;
7334;SDS011;3708;42.632;23.378;2022-09-21T13:45:50;3.67;;;1.40;;
7334;SDS011;3708;42.632;23.378;2022-09-21T13:48:23;1.40;;;1.10;;
7334;SDS011;3708;42.632;23.378;2022-09-21T13:50:59;8.37;;;3.97;;
7334;SDS011;3708;42.632;23.378;2022-09-21T13:53:33;7.20;;;3.80;;
7334;SDS011;3708;42.632;23.378;2022-09-21T13:56:06;4.90;;;1.57;;
7334;SDS011;3708;42.632;23.378;2022-09-21T13:58:39;2.80;;;1.97;;
7334;SDS011;3708;42.632;23.378;2022-09-21T14:01:14;37.43;;;18.10;;
7334;SDS011;3708;42.632;23.378;2022-09-21T14:03:45;1.60;;;1.30;;
7334;SDS011;3708;42.632;23.378;2022-09-21T14:06:16;1.43;;;0.90;;
7334;SDS011;3708;42.632;23.378;2022-09-21T14:08:48;2.17;;;1.20;;
7334;SDS011;3708;42.632;23.378;2022-09-21T14:11:21;1.33;;;1.00;;
7334;SDS011;3708;42.632;23.378;2022-09-21T14:13:59;1.63;;;1.27;;
7334;SDS011;3708;42.632;23.378;2022-09-21T14:16:53;5.27;;;3.23;;
7334;SDS011;3708;42.632;23.378;2022-09-21T14:22:38;9.57;;;4.80;;
7334;SDS011;3708;42.632;23.378;2022-09-21T14:28:18;7.97;;;1.80;;
7334;SDS011;3708;42.632;23.378;2022-09-21T14:30:55;2.13;;;1.80;;
7334;SDS011;3708;42.632;23.378;2022-09-21T14:33:29;2.60;;;1.50;;
7334;SDS011;3708;42.632;23.378;2022-09-21T14:36:00;3.70;;;2.00;;
7334;SDS011;3708;42.632;23.378;2022-09-21T14:38:37;6.50;;;2.93;;
7334;SDS011;3708;42.632;23.378;2022-09-21T14:41:15;2.47;;;1.70;;
7334;SDS011;3708;42.632;23.378;2022-09-21T14:43:47;2.93;;;1.77;;
7334;SDS011;3708;42.632;23.378;2022-09-21T14:52:12;5.80;;;1.93;;
7334;SDS011;3708;42.632;23.378;2022-09-21T14:54:57;2.10;;;1.73;;
7334;SDS011;3708;42.632;23.378;2022-09-21T15:00:43;3.57;;;1.50;;
7334;SDS011;3708;42.632;23.378;2022-09-21T15:06:18;2.30;;;1.73;;
7334;SDS011;3708;42.632;23.378;2022-09-21T15:09:19;3.40;;;2.30;;
7334;SDS011;3708;42.632;23.378;2022-09-21T15:12:15;2.60;;;1.90;;
7334;SDS011;3708;42.632;23.378;2022-09-21T15:14:50;2.77;;;2.13;;
7334;SDS011;3708;42.632;23.378;2022-09-21T15:17:26;2.30;;;1.80;;
7334;SDS011;3708;42.632;23.378;2022-09-21T15:19:56;5.03;;;2.47;;
7334;SDS011;3708;42.632;23.378;2022-09-21T15:22:25;6.60;;;1.90;;
7334;SDS011;3708;42.632;23.378;2022-09-21T15:24:53;11.33;;;2.20;;
7334;SDS011;3708;42.632;23.378;2022-09-21T15:27:24;2.10;;;1.90;;
7334;SDS011;3708;42.632;23.378;2022-09-21T15:29:57;5.77;;;1.90;;
7334;SDS011;3708;42.632;23.378;2022-09-21T15:32:30;2.10;;;1.90;;
7334;SDS011;3708;42.632;23.378;2022-09-21T15:35:02;2.73;;;2.13;;
7334;SDS011;3708;42.632;23.378;2022-09-21T15:37:33;2.43;;;2.00;;
7334;SDS011;3708;42.632;23.378;2022-09-21T15:40:04;4.50;;;2.47;;
7334;SDS011;3708;42.632;23.378;2022-09-21T15:42:47;3.73;;;2.30;;
7334;SDS011;3708;42.632;23.378;2022-09-21T15:45:25;3.03;;;2.03;;
7334;SDS011;3708;42.632;23.378;2022-09-21T15:47:54;4.27;;;1.93;;
7334;SDS011;3708;42.632;23.378;2022-09-21T15:50:22;5.33;;;2.30;;
7334;SDS011;3708;42.632;23.378;2022-09-21T15:52:51;3.00;;;2.30;;
7334;SDS011;3708;42.632;23.378;2022-09-21T15:55:22;2.03;;;1.80;;
7334;SDS011;3708;42.632;23.378;2022-09-21T15:57:51;2.40;;;1.97;;
7334;SDS011;3708;42.632;23.378;2022-09-21T16:00:22;3.10;;;2.13;;
7334;SDS011;3708;42.632;23.378;2022-09-21T16:02:53;3.73;;;2.30;;
7334;SDS011;3708;42.632;23.378;2022-09-21T16:05:28;3.87;;;2.53;;